Time,TemperatureF,DewpointF,PressureIn,WindDirection,WindDirectionDegrees,WindSpeedMPH,WindSpeedGustMPH,Humidity,HourlyPrecipIn,Conditions,Clouds,dailyrainin,SoftwareType,DateUTC
2013-02-06 00:00:00,34.0,33.0,29.96,North,360,8.0,8.0,97,-99.99,,,-99.99,,2013-02-06 05:00:00,
2013-02-06 00:22:00,34.0,33.0,29.96,North,360,8.0,8.0,97,-99.99,,,-99.99,,2013-02-06 05:22:00,
2013-02-06 00:31:00,34.0,33.0,29.96,North,360,8.0,8.0,97,-99.99,,,-99.99,,2013-02-06 05:31:00,
2013-02-06 00:41:00,34.0,33.0,29.96,North,360,8.0,8.0,97,-99.99,,,-99.99,,2013-02-06 05:41:00,
2013-02-06 00:52:00,34.0,33.0,29.96,North,360,8.0,8.0,97,-99.99,,,-99.99,,2013-02-06 05:52:00,
2013-02-06 01:00:00,34.0,33.0,29.97,North,350,5.0,5.0,97,-99.99,,,-99.99,,2013-02-06 06:00:00,
2013-02-06 01:21:00,34.0,33.0,29.97,North,350,5.0,5.0,97,-99.99,,,-99.99,,2013-02-06 06:21:00,
2013-02-06 01:31:00,34.0,33.0,29.97,North,350,5.0,5.0,97,-99.99,,,-99.99,,2013-02-06 06:31:00,
2013-02-06 01:41:00,34.0,33.0,29.97,North,350,5.0,5.0,97,-99.99,,,-99.99,,2013-02-06 06:41:00,
2013-02-06 01:51:00,34.0,33.0,29.97,North,350,5.0,5.0,97,-99.99,,,-99.99,,2013-02-06 06:51:00,
2013-02-06 02:00:00,34.0,34.0,29.97,North,0,0.0,1.0,99,-99.99,,,-99.99,,2013-02-06 07:00:00,
2013-02-06 02:21:00,34.0,34.0,29.97,North,0,0.0,1.0,99,-99.99,,,-99.99,,2013-02-06 07:21:00,
2013-02-06 02:32:00,34.0,34.0,29.97,North,0,0.0,1.0,99,-99.99,,,-99.99,,2013-02-06 07:32:00,
2013-02-06 02:41:00,34.0,34.0,29.97,North,0,0.0,1.0,99,-99.99,,,-99.99,,2013-02-06 07:41:00,
2013-02-06 02:51:00,34.0,34.0,29.97,North,0,0.0,1.0,99,-99.99,,,-99.99,,2013-02-06 07:51:00,
2013-02-06 03:00:00,34.0,34.0,29.97,North,0,0.0,0.0,98,-99.99,,,-99.99,,2013-02-06 08:00:00,
2013-02-06 03:11:00,34.0,34.0,29.97,North,0,0.0,0.0,98,-99.99,,,-99.99,,2013-02-06 08:11:00,
2013-02-06 03:21:00,34.0,34.0,29.97,North,0,0.0,0.0,98,-99.99,,,-99.99,,2013-02-06 08:21:00,
2013-02-06 03:31:00,34.0,34.0,29.97,North,0,0.0,0.0,98,-99.99,,,-99.99,,2013-02-06 08:31:00,
2013-02-06 03:41:00,34.0,34.0,29.97,North,0,0.0,0.0,98,-99.99,,,-99.99,,2013-02-06 08:41:00,
2013-02-06 03:53:00,34.0,34.0,29.97,North,0,0.0,0.0,98,-99.99,,,-99.99,,2013-02-06 08:53:00,
2013-02-06 04:00:00,34.0,34.0,29.98,NE,40,2.0,2.0,98,-99.99,,,-99.99,,2013-02-06 09:00:00,
2013-02-06 04:11:00,34.0,34.0,29.98,NE,40,2.0,2.0,98,-99.99,,,-99.99,,2013-02-06 09:11:00,
2013-02-06 04:21:00,34.0,34.0,29.98,NE,40,2.0,2.0,98,-99.99,,,-99.99,,2013-02-06 09:21:00,
2013-02-06 04:31:00,34.0,34.0,29.98,NE,40,2.0,2.0,98,-99.99,,,-99.99,,2013-02-06 09:31:00,
2013-02-06 04:41:00,34.0,34.0,29.98,NE,40,2.0,2.0,98,-99.99,,,-99.99,,2013-02-06 09:41:00,
2013-02-06 04:51:00,34.0,34.0,29.98,NE,40,2.0,2.0,98,-99.99,,,-99.99,,2013-02-06 09:51:00,
2013-02-06 05:00:00,34.0,34.0,30.02,West,270,2.0,2.0,99,-99.99,,,-99.99,,2013-02-06 10:00:00,
2013-02-06 05:11:00,34.0,34.0,30.02,West,270,2.0,2.0,99,-99.99,,,-99.99,,2013-02-06 10:11:00,
2013-02-06 05:21:00,34.0,34.0,30.02,West,270,2.0,2.0,99,-99.99,,,-99.99,,2013-02-06 10:21:00,
2013-02-06 05:31:00,34.0,34.0,30.02,West,270,2.0,2.0,99,-99.99,,,-99.99,,2013-02-06 10:31:00,
2013-02-06 05:41:00,34.0,34.0,30.02,West,270,2.0,2.0,99,-99.99,,,-99.99,,2013-02-06 10:41:00,
2013-02-06 05:51:00,34.0,34.0,30.02,West,270,2.0,2.0,99,-99.99,,,-99.99,,2013-02-06 10:51:00,
2013-02-06 06:00:00,35.0,34.0,30.05,NNW,340,7.0,7.0,97,-99.99,,,-99.99,,2013-02-06 11:00:00,
2013-02-06 06:21:00,35.0,34.0,30.05,NNW,340,7.0,7.0,97,-99.99,,,-99.99,,2013-02-06 11:21:00,
2013-02-06 06:31:00,35.0,34.0,30.05,NNW,340,7.0,7.0,97,-99.99,,,-99.99,,2013-02-06 11:31:00,
2013-02-06 06:41:00,35.0,34.0,30.05,NNW,340,7.0,7.0,97,-99.99,,,-99.99,,2013-02-06 11:41:00,
2013-02-06 06:52:00,35.0,34.0,30.05,NNW,340,7.0,7.0,97,-99.99,,,-99.99,,2013-02-06 11:52:00,
2013-02-06 07:00:00,34.0,34.0,30.09,North,0,0.0,1.0,100,-99.99,,,-99.99,,2013-02-06 12:00:00,
2013-02-06 07:12:00,34.0,34.0,30.09,North,0,0.0,1.0,100,-99.99,,,-99.99,,2013-02-06 12:12:00,
2013-02-06 07:21:00,34.0,34.0,30.09,North,0,0.0,1.0,100,-99.99,,,-99.99,,2013-02-06 12:21:00,
2013-02-06 07:32:00,34.0,34.0,30.09,North,0,0.0,1.0,100,-99.99,,,-99.99,,2013-02-06 12:32:00,
2013-02-06 07:41:00,34.0,34.0,30.09,North,0,0.0,1.0,100,-99.99,,,-99.99,,2013-02-06 12:41:00,
2013-02-06 07:52:00,34.0,34.0,30.09,North,0,0.0,1.0,100,-99.99,,,-99.99,,2013-02-06 12:52:00,
2013-02-06 08:00:00,34.0,34.0,30.13,WNW,290,2.0,2.0,97,-99.99,,,-99.99,,2013-02-06 13:00:00,
2013-02-06 08:11:00,34.0,34.0,30.13,WNW,290,2.0,2.0,97,-99.99,,,-99.99,,2013-02-06 13:11:00,
2013-02-06 08:21:00,34.0,34.0,30.13,WNW,290,2.0,2.0,97,-99.99,,,-99.99,,2013-02-06 13:21:00,
2013-02-06 08:31:00,34.0,34.0,30.13,WNW,290,2.0,2.0,97,-99.99,,,-99.99,,2013-02-06 13:31:00,
2013-02-06 08:41:00,34.0,34.0,30.13,WNW,290,2.0,2.0,97,-99.99,,,-99.99,,2013-02-06 13:41:00,
2013-02-06 08:51:00,34.0,34.0,30.13,WNW,290,2.0,2.0,97,-99.99,,,-99.99,,2013-02-06 13:51:00,
2013-02-06 09:00:00,35.0,33.0,30.16,North,360,2.0,2.0,95,-99.99,,,-99.99,,2013-02-06 14:00:00,
2013-02-06 09:21:00,35.0,33.0,30.16,North,360,2.0,2.0,95,-99.99,,,-99.99,,2013-02-06 14:21:00,
2013-02-06 09:31:00,35.0,33.0,30.16,North,360,2.0,2.0,95,-99.99,,,-99.99,,2013-02-06 14:31:00,
2013-02-06 09:41:00,35.0,33.0,30.16,North,360,2.0,2.0,95,-99.99,,,-99.99,,2013-02-06 14:41:00,
2013-02-06 09:51:00,35.0,33.0,30.16,North,360,2.0,2.0,95,-99.99,,,-99.99,,2013-02-06 14:51:00,
2013-02-06 11:00:00,40.0,29.0,30.19,NW,320,17.0,22.0,65,-99.99,,,-99.99,,2013-02-06 16:00:00,
2013-02-06 11:21:00,40.0,29.0,30.19,NW,320,17.0,22.0,65,-99.99,,,-99.99,,2013-02-06 16:21:00,
2013-02-06 11:31:00,40.0,29.0,30.19,NW,320,17.0,22.0,65,-99.99,,,-99.99,,2013-02-06 16:31:00,
2013-02-06 11:41:00,40.0,29.0,30.19,NW,320,17.0,22.0,65,-99.99,,,-99.99,,2013-02-06 16:41:00,
2013-02-06 11:51:00,40.0,29.0,30.19,NW,320,17.0,22.0,65,-99.99,,,-99.99,,2013-02-06 16:51:00,
2013-02-06 12:00:00,41.0,26.0,30.20,WNW,300,16.0,20.0,53,-99.99,,,-99.99,,2013-02-06 17:00:00,
2013-02-06 12:21:00,41.0,26.0,30.20,WNW,300,16.0,20.0,53,-99.99,,,-99.99,,2013-02-06 17:21:00,
2013-02-06 12:32:00,41.0,26.0,30.20,WNW,300,16.0,20.0,53,-99.99,,,-99.99,,2013-02-06 17:32:00,
2013-02-06 12:41:00,41.0,26.0,30.20,WNW,300,16.0,20.0,53,-99.99,,,-99.99,,2013-02-06 17:41:00,
2013-02-06 12:52:00,41.0,26.0,30.20,WNW,300,16.0,20.0,53,-99.99,,,-99.99,,2013-02-06 17:52:00,
2013-02-06 13:00:00,41.0,23.0,30.19,NW,320,21.0,25.0,48,-99.99,,,-99.99,,2013-02-06 18:00:00,
2013-02-06 13:22:00,41.0,23.0,30.19,NW,320,21.0,25.0,48,-99.99,,,-99.99,,2013-02-06 18:22:00,
2013-02-06 13:32:00,41.0,23.0,30.19,NW,320,21.0,25.0,48,-99.99,,,-99.99,,2013-02-06 18:32:00,
2013-02-06 13:41:00,41.0,23.0,30.19,NW,320,21.0,25.0,48,-99.99,,,-99.99,,2013-02-06 18:41:00,
2013-02-06 13:52:00,41.0,23.0,30.19,NW,320,21.0,25.0,48,-99.99,,,-99.99,,2013-02-06 18:52:00,
2013-02-06 14:00:00,42.0,22.0,30.20,WNW,300,20.0,22.0,44,-99.99,,,-99.99,,2013-02-06 19:00:00,
2013-02-06 14:21:00,42.0,22.0,30.20,WNW,300,20.0,22.0,44,-99.99,,,-99.99,,2013-02-06 19:21:00,
2013-02-06 14:31:00,42.0,22.0,30.20,WNW,300,20.0,22.0,44,-99.99,,,-99.99,,2013-02-06 19:31:00,
2013-02-06 14:41:00,42.0,22.0,30.20,WNW,300,20.0,22.0,44,-99.99,,,-99.99,,2013-02-06 19:41:00,
2013-02-06 14:52:00,42.0,22.0,30.20,WNW,300,20.0,22.0,44,-99.99,,,-99.99,,2013-02-06 19:52:00,
2013-02-06 15:00:00,43.0,23.0,30.21,NW,310,17.0,18.0,45,-99.99,,,-99.99,,2013-02-06 20:00:00,
2013-02-06 15:21:00,43.0,23.0,30.21,NW,310,17.0,18.0,45,-99.99,,,-99.99,,2013-02-06 20:21:00,
2013-02-06 15:31:00,43.0,23.0,30.21,NW,310,17.0,18.0,45,-99.99,,,-99.99,,2013-02-06 20:31:00,
2013-02-06 15:41:00,43.0,23.0,30.21,NW,310,17.0,18.0,45,-99.99,,,-99.99,,2013-02-06 20:41:00,
2013-02-06 15:52:00,43.0,23.0,30.21,NW,310,17.0,18.0,45,-99.99,,,-99.99,,2013-02-06 20:52:00,
2013-02-06 16:00:00,43.0,24.0,30.21,NNW,330,20.0,23.0,46,-99.99,,,-99.99,,2013-02-06 21:00:00,
2013-02-06 16:21:00,43.0,24.0,30.21,NNW,330,20.0,23.0,46,-99.99,,,-99.99,,2013-02-06 21:21:00,
2013-02-06 16:31:00,43.0,24.0,30.21,NNW,330,20.0,23.0,46,-99.99,,,-99.99,,2013-02-06 21:31:00,
2013-02-06 16:41:00,43.0,24.0,30.21,NNW,330,20.0,23.0,46,-99.99,,,-99.99,,2013-02-06 21:41:00,
2013-02-06 16:51:00,43.0,24.0,30.21,NNW,330,20.0,23.0,46,-99.99,,,-99.99,,2013-02-06 21:51:00,
2013-02-06 17:00:00,43.0,22.0,30.24,WNW,300,14.0,16.0,44,-99.99,,,-99.99,,2013-02-06 22:00:00,
2013-02-06 17:21:00,43.0,22.0,30.24,WNW,300,14.0,16.0,44,-99.99,,,-99.99,,2013-02-06 22:21:00,
2013-02-06 17:31:00,43.0,22.0,30.24,WNW,300,14.0,16.0,44,-99.99,,,-99.99,,2013-02-06 22:31:00,
2013-02-06 17:41:00,43.0,22.0,30.24,WNW,300,14.0,16.0,44,-99.99,,,-99.99,,2013-02-06 22:41:00,
2013-02-06 17:51:00,43.0,22.0,30.24,WNW,300,14.0,16.0,44,-99.99,,,-99.99,,2013-02-06 22:51:00,
2013-02-06 18:00:00,41.0,22.0,30.26,NNW,330,17.0,21.0,46,-99.99,,,-99.99,,2013-02-06 23:00:00,
2013-02-06 18:21:00,41.0,22.0,30.26,NNW,330,17.0,21.0,46,-99.99,,,-99.99,,2013-02-06 23:21:00,
2013-02-06 18:31:00,41.0,22.0,30.26,NNW,330,17.0,21.0,46,-99.99,,,-99.99,,2013-02-06 23:31:00,
2013-02-06 18:41:00,41.0,22.0,30.26,NNW,330,17.0,21.0,46,-99.99,,,-99.99,,2013-02-06 23:41:00,
2013-02-06 18:51:00,41.0,22.0,30.26,NNW,330,17.0,21.0,46,-99.99,,,-99.99,,2013-02-06 23:51:00,
2013-02-06 19:00:00,40.0,22.0,30.30,NNW,330,13.0,15.0,48,-99.99,,,-99.99,,2013-02-07 00:00:00,
2013-02-06 19:21:00,40.0,22.0,30.30,NNW,330,13.0,15.0,48,-99.99,,,-99.99,,2013-02-07 00:21:00,
2013-02-06 19:31:00,40.0,22.0,30.30,NNW,330,13.0,15.0,48,-99.99,,,-99.99,,2013-02-07 00:31:00,
2013-02-06 19:41:00,40.0,22.0,30.30,NNW,330,13.0,15.0,48,-99.99,,,-99.99,,2013-02-07 00:41:00,
2013-02-06 19:51:00,40.0,22.0,30.30,NNW,330,13.0,15.0,48,-99.99,,,-99.99,,2013-02-07 00:51:00,
2013-02-06 20:00:00,39.0,22.0,30.33,NNW,330,7.0,9.0,50,-99.99,,,-99.99,,2013-02-07 01:00:00,
2013-02-06 20:11:00,39.0,22.0,30.33,NNW,330,7.0,9.0,50,-99.99,,,-99.99,,2013-02-07 01:11:00,
2013-02-06 20:21:00,39.0,22.0,30.33,NNW,330,7.0,9.0,50,-99.99,,,-99.99,,2013-02-07 01:21:00,
2013-02-06 20:31:00,39.0,22.0,30.33,NNW,330,7.0,9.0,50,-99.99,,,-99.99,,2013-02-07 01:31:00,
2013-02-06 20:41:00,39.0,22.0,30.33,NNW,330,7.0,9.0,50,-99.99,,,-99.99,,2013-02-07 01:41:00,
2013-02-06 20:52:00,39.0,22.0,30.33,NNW,330,7.0,9.0,50,-99.99,,,-99.99,,2013-02-07 01:52:00,
2013-02-06 21:00:00,38.0,21.0,30.35,North,360,8.0,9.0,50,-99.99,,,-99.99,,2013-02-07 02:00:00,
2013-02-06 21:21:00,38.0,21.0,30.35,North,360,8.0,9.0,50,-99.99,,,-99.99,,2013-02-07 02:21:00,
2013-02-06 21:31:00,38.0,21.0,30.35,North,360,8.0,9.0,50,-99.99,,,-99.99,,2013-02-07 02:31:00,
2013-02-06 21:41:00,38.0,21.0,30.35,North,360,8.0,9.0,50,-99.99,,,-99.99,,2013-02-07 02:41:00,
2013-02-06 21:51:00,38.0,21.0,30.35,North,360,8.0,9.0,50,-99.99,,,-99.99,,2013-02-07 02:51:00,
2013-02-06 22:00:00,37.0,20.0,30.37,NNE,30,5.0,6.0,50,-99.99,,,-99.99,,2013-02-07 03:00:00,
2013-02-06 22:21:00,37.0,20.0,30.37,NNE,30,5.0,6.0,50,-99.99,,,-99.99,,2013-02-07 03:21:00,
2013-02-06 22:31:00,37.0,20.0,30.37,NNE,30,5.0,6.0,50,-99.99,,,-99.99,,2013-02-07 03:31:00,
2013-02-06 22:41:00,37.0,20.0,30.37,NNE,30,5.0,6.0,50,-99.99,,,-99.99,,2013-02-07 03:41:00,
2013-02-06 22:51:00,37.0,20.0,30.37,NNE,30,5.0,6.0,50,-99.99,,,-99.99,,2013-02-07 03:51:00,
2013-02-06 23:00:00,37.0,21.0,30.38,North,360,8.0,9.0,52,-99.99,,,-99.99,,2013-02-07 04:00:00,
2013-02-06 23:11:00,37.0,21.0,30.38,North,360,8.0,9.0,52,-99.99,,,-99.99,,2013-02-07 04:11:00,
2013-02-06 23:21:00,37.0,21.0,30.38,North,360,8.0,9.0,52,-99.99,,,-99.99,,2013-02-07 04:21:00,
2013-02-06 23:31:00,37.0,21.0,30.38,North,360,8.0,9.0,52,-99.99,,,-99.99,,2013-02-07 04:31:00,
2013-02-06 23:41:00,37.0,21.0,30.38,North,360,8.0,9.0,52,-99.99,,,-99.99,,2013-02-07 04:41:00,
2013-02-06 23:52:00,37.0,21.0,30.38,North,360,8.0,9.0,52,-99.99,,,-99.99,,2013-02-07 04:52:00,